Waterville, Vermont
Current Conditions -  °F | °C
As of 10:54 PM on Saturday 25 Oct 2014 (Local Time) from KMVL Reporting Station
Scattered Clouds Scattered Clouds  
Wind Chill: 11°   Ceiling: Unl
Heat Index: 11°   Visibility: 10mi
Dew Point:   Wind: 6mph
Humidity: 86%   Direction: 260°W
Pressure: 29.46"   Gusts: NA
Location:  44.69°N, 72.77°W
Report Text: KMVL 260254Z AUTO 26005KT 10SM FEW046 SCT065 11/08 A2946 RMK AO2 SLP980 60023 T01060083 56008
Loading
Personal Weather Stations






























Interactive Weather Map
Tropical Storm Tracking
New forecast layout! Learn more

10-Day Weather Forecast

Advertisements
Track Severe Weather on mobile